sensor_id;sensor_type;location;lat;lon;timestamp;P1;durP1;ratioP1;P2;durP2;ratioP2
65656;SDS011;57397;50.096;14.404;2023-04-24T00:01:16;1.90;;;1.35;;
65656;SDS011;57397;50.096;14.404;2023-04-24T00:03:42;2.20;;;1.50;;
65656;SDS011;57397;50.096;14.404;2023-04-24T00:06:07;2.15;;;1.48;;
65656;SDS011;57397;50.096;14.404;2023-04-24T00:08:33;2.28;;;1.52;;
65656;SDS011;57397;50.096;14.404;2023-04-24T00:11:00;2.08;;;1.50;;
65656;SDS011;57397;50.096;14.404;2023-04-24T00:13:25;2.28;;;1.42;;
65656;SDS011;57397;50.096;14.404;2023-04-24T00:15:53;2.85;;;1.50;;
65656;SDS011;57397;50.096;14.404;2023-04-24T00:18:19;1.95;;;1.30;;
65656;SDS011;57397;50.096;14.404;2023-04-24T00:20:44;2.03;;;1.20;;
65656;SDS011;57397;50.096;14.404;2023-04-24T00:23:10;1.70;;;1.27;;
65656;SDS011;57397;50.096;14.404;2023-04-24T00:25:35;2.25;;;1.42;;
65656;SDS011;57397;50.096;14.404;2023-04-24T00:28:01;2.45;;;1.70;;
65656;SDS011;57397;50.096;14.404;2023-04-24T00:30:27;1.70;;;1.40;;
65656;SDS011;57397;50.096;14.404;2023-04-24T00:32:52;1.70;;;1.30;;
65656;SDS011;57397;50.096;14.404;2023-04-24T00:35:18;3.00;;;1.40;;
65656;SDS011;57397;50.096;14.404;2023-04-24T00:37:45;1.60;;;1.15;;
65656;SDS011;57397;50.096;14.404;2023-04-24T00:40:10;1.58;;;1.10;;
65656;SDS011;57397;50.096;14.404;2023-04-24T00:42:36;2.05;;;1.30;;
65656;SDS011;57397;50.096;14.404;2023-04-24T00:45:02;1.77;;;1.30;;
65656;SDS011;57397;50.096;14.404;2023-04-24T00:47:28;1.33;;;1.00;;
65656;SDS011;57397;50.096;14.404;2023-04-24T00:49:54;1.63;;;1.10;;
65656;SDS011;57397;50.096;14.404;2023-04-24T00:52:20;1.83;;;1.17;;
65656;SDS011;57397;50.096;14.404;2023-04-24T00:54:45;2.50;;;1.20;;
65656;SDS011;57397;50.096;14.404;2023-04-24T00:57:12;2.35;;;1.10;;
65656;SDS011;57397;50.096;14.404;2023-04-24T00:59:38;1.23;;;1.02;;
65656;SDS011;57397;50.096;14.404;2023-04-24T01:02:06;1.77;;;1.20;;
65656;SDS011;57397;50.096;14.404;2023-04-24T01:04:32;1.98;;;1.38;;
65656;SDS011;57397;50.096;14.404;2023-04-24T01:06:57;1.77;;;1.10;;
65656;SDS011;57397;50.096;14.404;2023-04-24T01:09:23;1.60;;;1.00;;
65656;SDS011;57397;50.096;14.404;2023-04-24T01:11:49;2.17;;;1.17;;
65656;SDS011;57397;50.096;14.404;2023-04-24T01:14:15;2.13;;;1.02;;
65656;SDS011;57397;50.096;14.404;2023-04-24T01:16:40;1.60;;;1.10;;
65656;SDS011;57397;50.096;14.404;2023-04-24T01:19:07;2.63;;;1.25;;
65656;SDS011;57397;50.096;14.404;2023-04-24T01:21:34;1.45;;;0.95;;
65656;SDS011;57397;50.096;14.404;2023-04-24T01:24:02;3.17;;;1.00;;
65656;SDS011;57397;50.096;14.404;2023-04-24T01:26:28;1.63;;;0.95;;
65656;SDS011;57397;50.096;14.404;2023-04-24T01:28:54;1.33;;;1.00;;
65656;SDS011;57397;50.096;14.404;2023-04-24T01:31:19;1.42;;;1.00;;
65656;SDS011;57397;50.096;14.404;2023-04-24T01:33:45;1.42;;;1.00;;
65656;SDS011;57397;50.096;14.404;2023-04-24T01:36:11;1.50;;;0.90;;
65656;SDS011;57397;50.096;14.404;2023-04-24T01:38:37;1.15;;;0.90;;
65656;SDS011;57397;50.096;14.404;2023-04-24T01:41:02;1.50;;;1.00;;
65656;SDS011;57397;50.096;14.404;2023-04-24T01:43:28;1.95;;;1.08;;
65656;SDS011;57397;50.096;14.404;2023-04-24T01:45:54;2.50;;;0.90;;
65656;SDS011;57397;50.096;14.404;2023-04-24T01:48:20;1.52;;;0.98;;
65656;SDS011;57397;50.096;14.404;2023-04-24T01:50:45;2.15;;;1.20;;
65656;SDS011;57397;50.096;14.404;2023-04-24T01:53:11;1.77;;;1.08;;
65656;SDS011;57397;50.096;14.404;2023-04-24T01:55:37;2.08;;;1.00;;
65656;SDS011;57397;50.096;14.404;2023-04-24T01:58:02;1.45;;;0.95;;
65656;SDS011;57397;50.096;14.404;2023-04-24T02:00:28;1.60;;;1.10;;
65656;SDS011;57397;50.096;14.404;2023-04-24T02:02:53;1.30;;;0.90;;
65656;SDS011;57397;50.096;14.404;2023-04-24T02:05:19;2.25;;;0.95;;
65656;SDS011;57397;50.096;14.404;2023-04-24T02:07:44;1.38;;;0.98;;
65656;SDS011;57397;50.096;14.404;2023-04-24T02:10:10;2.00;;;0.90;;
65656;SDS011;57397;50.096;14.404;2023-04-24T02:12:36;1.63;;;1.10;;
65656;SDS011;57397;50.096;14.404;2023-04-24T02:15:01;1.33;;;0.88;;
65656;SDS011;57397;50.096;14.404;2023-04-24T02:17:27;1.27;;;0.93;;
65656;SDS011;57397;50.096;14.404;2023-04-24T02:19:53;1.30;;;0.95;;
65656;SDS011;57397;50.096;14.404;2023-04-24T02:22:18;1.02;;;0.80;;
65656;SDS011;57397;50.096;14.404;2023-04-24T02:24:44;1.30;;;0.95;;
65656;SDS011;57397;50.096;14.404;2023-04-24T02:27:10;1.15;;;0.77;;
65656;SDS011;57397;50.096;14.404;2023-04-24T02:29:36;1.52;;;0.90;;
65656;SDS011;57397;50.096;14.404;2023-04-24T02:32:01;1.10;;;0.70;;
65656;SDS011;57397;50.096;14.404;2023-04-24T02:34:27;1.17;;;0.88;;
65656;SDS011;57397;50.096;14.404;2023-04-24T02:36:53;1.50;;;1.00;;
65656;SDS011;57397;50.096;14.404;2023-04-24T02:39:19;1.15;;;0.80;;
65656;SDS011;57397;50.096;14.404;2023-04-24T02:41:45;1.17;;;0.80;;
65656;SDS011;57397;50.096;14.404;2023-04-24T02:44:10;1.33;;;0.90;;
65656;SDS011;57397;50.096;14.404;2023-04-24T02:46:36;1.75;;;1.00;;
65656;SDS011;57397;50.096;14.404;2023-04-24T02:49:02;0.70;;;0.70;;
65656;SDS011;57397;50.096;14.404;2023-04-24T02:51:27;1.60;;;0.82;;
65656;SDS011;57397;50.096;14.404;2023-04-24T02:53:53;1.27;;;0.80;;
65656;SDS011;57397;50.096;14.404;2023-04-24T02:56:18;1.52;;;1.08;;
65656;SDS011;57397;50.096;14.404;2023-04-24T02:58:44;1.50;;;0.70;;
65656;SDS011;57397;50.096;14.404;2023-04-24T03:01:10;1.20;;;0.93;;
65656;SDS011;57397;50.096;14.404;2023-04-24T03:03:36;1.00;;;0.80;;
65656;SDS011;57397;50.096;14.404;2023-04-24T03:06:02;1.77;;;0.90;;
65656;SDS011;57397;50.096;14.404;2023-04-24T03:08:30;1.45;;;0.80;;
65656;SDS011;57397;50.096;14.404;2023-04-24T03:10:56;1.30;;;0.80;;
65656;SDS011;57397;50.096;14.404;2023-04-24T03:13:22;0.82;;;0.65;;
65656;SDS011;57397;50.096;14.404;2023-04-24T03:15:47;1.00;;;0.80;;
65656;SDS011;57397;50.096;14.404;2023-04-24T03:18:13;1.00;;;0.70;;
65656;SDS011;57397;50.096;14.404;2023-04-24T03:20:38;1.42;;;0.88;;
65656;SDS011;57397;50.096;14.404;2023-04-24T03:23:04;1.17;;;0.80;;
65656;SDS011;57397;50.096;14.404;2023-04-24T03:25:29;1.27;;;0.65;;
65656;SDS011;57397;50.096;14.404;2023-04-24T03:27:55;1.02;;;0.80;;
65656;SDS011;57397;50.096;14.404;2023-04-24T03:30:20;1.35;;;0.80;;
65656;SDS011;57397;50.096;14.404;2023-04-24T03:32:46;1.02;;;0.70;;
65656;SDS011;57397;50.096;14.404;2023-04-24T03:35:12;1.00;;;0.70;;
65656;SDS011;57397;50.096;14.404;2023-04-24T03:37:37;0.95;;;0.70;;
65656;SDS011;57397;50.096;14.404;2023-04-24T03:40:03;1.10;;;0.80;;
65656;SDS011;57397;50.096;14.404;2023-04-24T03:42:29;1.58;;;0.80;;
65656;SDS011;57397;50.096;14.404;2023-04-24T03:44:54;1.00;;;0.70;;
65656;SDS011;57397;50.096;14.404;2023-04-24T03:47:20;0.90;;;0.70;;
65656;SDS011;57397;50.096;14.404;2023-04-24T03:49:46;0.88;;;0.68;;
65656;SDS011;57397;50.096;14.404;2023-04-24T03:52:11;1.20;;;0.90;;
65656;SDS011;57397;50.096;14.404;2023-04-24T03:54:36;1.27;;;0.70;;
65656;SDS011;57397;50.096;14.404;2023-04-24T03:57:02;1.10;;;0.70;;
65656;SDS011;57397;50.096;14.404;2023-04-24T03:59:29;0.98;;;0.80;;
65656;SDS011;57397;50.096;14.404;2023-04-24T04:01:55;1.08;;;0.75;;
65656;SDS011;57397;50.096;14.404;2023-04-24T04:04:20;0.88;;;0.70;;
65656;SDS011;57397;50.096;14.404;2023-04-24T04:06:46;1.00;;;0.90;;
65656;SDS011;57397;50.096;14.404;2023-04-24T04:09:11;1.30;;;0.70;;
65656;SDS011;57397;50.096;14.404;2023-04-24T04:11:37;1.83;;;0.80;;
65656;SDS011;57397;50.096;14.404;2023-04-24T04:14:03;1.00;;;0.80;;
65656;SDS011;57397;50.096;14.404;2023-04-24T04:16:28;1.00;;;0.70;;
65656;SDS011;57397;50.096;14.404;2023-04-24T04:18:54;1.45;;;0.77;;
65656;SDS011;57397;50.096;14.404;2023-04-24T04:21:20;1.20;;;0.80;;
65656;SDS011;57397;50.096;14.404;2023-04-24T04:23:46;1.35;;;0.80;;
65656;SDS011;57397;50.096;14.404;2023-04-24T04:26:11;1.30;;;0.80;;
65656;SDS011;57397;50.096;14.404;2023-04-24T04:28:38;1.10;;;0.90;;
65656;SDS011;57397;50.096;14.404;2023-04-24T04:31:04;1.20;;;0.85;;
65656;SDS011;57397;50.096;14.404;2023-04-24T04:33:30;1.00;;;0.80;;
65656;SDS011;57397;50.096;14.404;2023-04-24T04:35:56;1.33;;;0.93;;
65656;SDS011;57397;50.096;14.404;2023-04-24T04:38:22;1.35;;;0.80;;
65656;SDS011;57397;50.096;14.404;2023-04-24T04:40:47;1.30;;;0.90;;
65656;SDS011;57397;50.096;14.404;2023-04-24T04:43:13;1.25;;;0.80;;
65656;SDS011;57397;50.096;14.404;2023-04-24T04:45:40;1.08;;;0.80;;
65656;SDS011;57397;50.096;14.404;2023-04-24T04:48:06;1.13;;;0.80;;
65656;SDS011;57397;50.096;14.404;2023-04-24T04:50:37;0.93;;;0.70;;
65656;SDS011;57397;50.096;14.404;2023-04-24T04:53:03;1.30;;;0.75;;
65656;SDS011;57397;50.096;14.404;2023-04-24T04:55:29;1.20;;;0.80;;
65656;SDS011;57397;50.096;14.404;2023-04-24T04:57:55;1.38;;;0.80;;
65656;SDS011;57397;50.096;14.404;2023-04-24T05:00:21;1.00;;;0.70;;
65656;SDS011;57397;50.096;14.404;2023-04-24T05:02:50;2.05;;;0.73;;
65656;SDS011;57397;50.096;14.404;2023-04-24T05:05:16;0.80;;;0.60;;
65656;SDS011;57397;50.096;14.404;2023-04-24T05:07:42;0.70;;;0.60;;
65656;SDS011;57397;50.096;14.404;2023-04-24T05:10:08;1.25;;;0.77;;
65656;SDS011;57397;50.096;14.404;2023-04-24T05:12:34;1.83;;;0.90;;
65656;SDS011;57397;50.096;14.404;2023-04-24T05:15:00;1.00;;;0.73;;
65656;SDS011;57397;50.096;14.404;2023-04-24T05:17:25;1.65;;;0.80;;
65656;SDS011;57397;50.096;14.404;2023-04-24T05:19:51;1.35;;;0.82;;
65656;SDS011;57397;50.096;14.404;2023-04-24T05:22:17;1.05;;;0.88;;
65656;SDS011;57397;50.096;14.404;2023-04-24T05:24:45;1.17;;;0.75;;
65656;SDS011;57397;50.096;14.404;2023-04-24T05:27:10;1.00;;;0.80;;
65656;SDS011;57397;50.096;14.404;2023-04-24T05:29:36;2.03;;;1.00;;
65656;SDS011;57397;50.096;14.404;2023-04-24T05:32:01;1.10;;;0.80;;
65656;SDS011;57397;50.096;14.404;2023-04-24T05:34:27;1.40;;;0.98;;
65656;SDS011;57397;50.096;14.404;2023-04-24T05:36:52;1.35;;;0.90;;
65656;SDS011;57397;50.096;14.404;2023-04-24T05:39:18;1.00;;;0.80;;
65656;SDS011;57397;50.096;14.404;2023-04-24T05:41:44;0.80;;;0.80;;
65656;SDS011;57397;50.096;14.404;2023-04-24T05:44:10;0.80;;;0.70;;
65656;SDS011;57397;50.096;14.404;2023-04-24T05:46:35;0.95;;;0.82;;
65656;SDS011;57397;50.096;14.404;2023-04-24T05:49:01;1.10;;;0.85;;
65656;SDS011;57397;50.096;14.404;2023-04-24T05:51:27;1.73;;;0.80;;
65656;SDS011;57397;50.096;14.404;2023-04-24T05:53:53;1.85;;;1.52;;
65656;SDS011;57397;50.096;14.404;2023-04-24T05:56:18;1.30;;;0.90;;
65656;SDS011;57397;50.096;14.404;2023-04-24T05:58:45;1.35;;;1.00;;
65656;SDS011;57397;50.096;14.404;2023-04-24T06:01:11;1.15;;;0.70;;
65656;SDS011;57397;50.096;14.404;2023-04-24T06:03:37;1.30;;;0.90;;
65656;SDS011;57397;50.096;14.404;2023-04-24T06:06:04;1.00;;;0.90;;
65656;SDS011;57397;50.096;14.404;2023-04-24T06:08:30;0.88;;;0.77;;
65656;SDS011;57397;50.096;14.404;2023-04-24T06:10:56;0.82;;;0.80;;
65656;SDS011;57397;50.096;14.404;2023-04-24T06:13:22;1.08;;;0.80;;
65656;SDS011;57397;50.096;14.404;2023-04-24T06:15:47;1.25;;;0.77;;
65656;SDS011;57397;50.096;14.404;2023-04-24T06:18:13;1.42;;;1.00;;
65656;SDS011;57397;50.096;14.404;2023-04-24T06:20:38;2.10;;;1.10;;
65656;SDS011;57397;50.096;14.404;2023-04-24T06:23:04;1.33;;;0.90;;
65656;SDS011;57397;50.096;14.404;2023-04-24T06:25:30;1.73;;;1.00;;
65656;SDS011;57397;50.096;14.404;2023-04-24T06:27:55;1.70;;;1.10;;
65656;SDS011;57397;50.096;14.404;2023-04-24T06:30:21;1.20;;;0.88;;
65656;SDS011;57397;50.096;14.404;2023-04-24T06:32:47;1.50;;;1.10;;
65656;SDS011;57397;50.096;14.404;2023-04-24T06:35:12;1.40;;;0.90;;
65656;SDS011;57397;50.096;14.404;2023-04-24T06:37:41;2.00;;;0.82;;
65656;SDS011;57397;50.096;14.404;2023-04-24T06:40:07;1.30;;;0.93;;
65656;SDS011;57397;50.096;14.404;2023-04-24T06:42:33;1.20;;;0.90;;
65656;SDS011;57397;50.096;14.404;2023-04-24T06:45:00;1.13;;;0.90;;
65656;SDS011;57397;50.096;14.404;2023-04-24T06:47:25;1.70;;;1.10;;
65656;SDS011;57397;50.096;14.404;2023-04-24T06:49:54;1.25;;;1.15;;
65656;SDS011;57397;50.096;14.404;2023-04-24T06:52:20;1.20;;;0.95;;
65656;SDS011;57397;50.096;14.404;2023-04-24T06:54:46;1.65;;;1.00;;
65656;SDS011;57397;50.096;14.404;2023-04-24T06:57:11;1.75;;;1.00;;
65656;SDS011;57397;50.096;14.404;2023-04-24T06:59:37;1.35;;;1.08;;
65656;SDS011;57397;50.096;14.404;2023-04-24T07:02:03;1.20;;;0.98;;
65656;SDS011;57397;50.096;14.404;2023-04-24T07:04:29;1.13;;;0.85;;
65656;SDS011;57397;50.096;14.404;2023-04-24T07:06:55;1.48;;;1.10;;
65656;SDS011;57397;50.096;14.404;2023-04-24T07:09:21;2.00;;;1.27;;
65656;SDS011;57397;50.096;14.404;2023-04-24T07:11:47;1.58;;;1.00;;
65656;SDS011;57397;50.096;14.404;2023-04-24T07:14:13;1.55;;;1.13;;
65656;SDS011;57397;50.096;14.404;2023-04-24T07:16:40;1.05;;;0.90;;
65656;SDS011;57397;50.096;14.404;2023-04-24T07:19:05;1.58;;;1.00;;
65656;SDS011;57397;50.096;14.404;2023-04-24T07:21:31;1.13;;;0.90;;
65656;SDS011;57397;50.096;14.404;2023-04-24T07:23:59;1.17;;;0.88;;
65656;SDS011;57397;50.096;14.404;2023-04-24T07:26:25;1.13;;;0.80;;
65656;SDS011;57397;50.096;14.404;2023-04-24T07:28:52;1.88;;;0.98;;
65656;SDS011;57397;50.096;14.404;2023-04-24T07:31:18;1.23;;;0.90;;
65656;SDS011;57397;50.096;14.404;2023-04-24T07:33:43;1.30;;;1.00;;
65656;SDS011;57397;50.096;14.404;2023-04-24T07:36:09;0.95;;;0.73;;
65656;SDS011;57397;50.096;14.404;2023-04-24T07:38:40;1.10;;;0.90;;
65656;SDS011;57397;50.096;14.404;2023-04-24T07:41:06;1.20;;;0.90;;
65656;SDS011;57397;50.096;14.404;2023-04-24T07:43:32;1.20;;;0.90;;
65656;SDS011;57397;50.096;14.404;2023-04-24T07:45:57;1.17;;;0.90;;
65656;SDS011;57397;50.096;14.404;2023-04-24T07:48:23;1.08;;;0.90;;
65656;SDS011;57397;50.096;14.404;2023-04-24T07:50:51;2.38;;;1.10;;
65656;SDS011;57397;50.096;14.404;2023-04-24T07:53:16;1.33;;;0.90;;
65656;SDS011;57397;50.096;14.404;2023-04-24T07:55:42;1.05;;;0.80;;
65656;SDS011;57397;50.096;14.404;2023-04-24T07:58:07;1.23;;;1.00;;
65656;SDS011;57397;50.096;14.404;2023-04-24T08:00:33;1.58;;;1.00;;
65656;SDS011;57397;50.096;14.404;2023-04-24T08:02:58;2.40;;;1.00;;
65656;SDS011;57397;50.096;14.404;2023-04-24T08:05:24;1.00;;;0.80;;
65656;SDS011;57397;50.096;14.404;2023-04-24T08:07:50;1.55;;;0.90;;
65656;SDS011;57397;50.096;14.404;2023-04-24T08:10:16;1.42;;;0.90;;
65656;SDS011;57397;50.096;14.404;2023-04-24T08:12:41;1.00;;;0.90;;
65656;SDS011;57397;50.096;14.404;2023-04-24T08:15:07;0.95;;;0.80;;
65656;SDS011;57397;50.096;14.404;2023-04-24T08:17:34;0.93;;;0.82;;
65656;SDS011;57397;50.096;14.404;2023-04-24T08:20:00;1.10;;;0.80;;
65656;SDS011;57397;50.096;14.404;2023-04-24T08:22:27;1.33;;;1.10;;
65656;SDS011;57397;50.096;14.404;2023-04-24T08:24:53;1.30;;;0.82;;
65656;SDS011;57397;50.096;14.404;2023-04-24T08:27:19;1.20;;;1.00;;
65656;SDS011;57397;50.096;14.404;2023-04-24T08:29:47;1.20;;;0.80;;
65656;SDS011;57397;50.096;14.404;2023-04-24T08:32:13;1.75;;;0.90;;
65656;SDS011;57397;50.096;14.404;2023-04-24T08:34:38;1.58;;;1.02;;
65656;SDS011;57397;50.096;14.404;2023-04-24T08:37:04;2.17;;;0.90;;
65656;SDS011;57397;50.096;14.404;2023-04-24T08:39:29;1.13;;;0.90;;
65656;SDS011;57397;50.096;14.404;2023-04-24T08:41:55;1.00;;;0.80;;
65656;SDS011;57397;50.096;14.404;2023-04-24T08:44:21;1.50;;;0.80;;
65656;SDS011;57397;50.096;14.404;2023-04-24T08:46:50;1.00;;;0.80;;
65656;SDS011;57397;50.096;14.404;2023-04-24T08:49:17;1.20;;;1.00;;
65656;SDS011;57397;50.096;14.404;2023-04-24T08:51:43;1.02;;;0.80;;
65656;SDS011;57397;50.096;14.404;2023-04-24T08:54:09;1.27;;;0.80;;
65656;SDS011;57397;50.096;14.404;2023-04-24T08:56:36;1.60;;;1.10;;
65656;SDS011;57397;50.096;14.404;2023-04-24T08:59:05;1.33;;;0.90;;
65656;SDS011;57397;50.096;14.404;2023-04-24T09:01:32;1.10;;;0.90;;
65656;SDS011;57397;50.096;14.404;2023-04-24T09:03:58;1.38;;;1.00;;
65656;SDS011;57397;50.096;14.404;2023-04-24T09:06:26;1.08;;;0.80;;
65656;SDS011;57397;50.096;14.404;2023-04-24T09:08:52;1.75;;;0.90;;
65656;SDS011;57397;50.096;14.404;2023-04-24T09:11:19;1.20;;;0.93;;
65656;SDS011;57397;50.096;14.404;2023-04-24T09:13:44;1.10;;;0.90;;
65656;SDS011;57397;50.096;14.404;2023-04-24T09:16:10;1.42;;;1.10;;
65656;SDS011;57397;50.096;14.404;2023-04-24T09:18:36;1.42;;;1.00;;
65656;SDS011;57397;50.096;14.404;2023-04-24T09:21:08;1.30;;;1.00;;
65656;SDS011;57397;50.096;14.404;2023-04-24T09:23:34;1.73;;;1.17;;
65656;SDS011;57397;50.096;14.404;2023-04-24T09:26:01;0.90;;;0.80;;
65656;SDS011;57397;50.096;14.404;2023-04-24T09:28:40;1.10;;;0.90;;
65656;SDS011;57397;50.096;14.404;2023-04-24T09:31:13;1.55;;;1.00;;
65656;SDS011;57397;50.096;14.404;2023-04-24T09:36:08;1.50;;;0.80;;
65656;SDS011;57397;50.096;14.404;2023-04-24T09:38:37;0.95;;;0.80;;
65656;SDS011;57397;50.096;14.404;2023-04-24T09:41:07;1.52;;;0.80;;
65656;SDS011;57397;50.096;14.404;2023-04-24T09:43:33;1.08;;;0.80;;
65656;SDS011;57397;50.096;14.404;2023-04-24T09:46:00;1.45;;;1.10;;
65656;SDS011;57397;50.096;14.404;2023-04-24T09:48:33;1.77;;;0.80;;
65656;SDS011;57397;50.096;14.404;2023-04-24T09:51:00;1.15;;;0.90;;
65656;SDS011;57397;50.096;14.404;2023-04-24T09:53:26;1.17;;;0.90;;
65656;SDS011;57397;50.096;14.404;2023-04-24T09:55:52;2.13;;;1.00;;
65656;SDS011;57397;50.096;14.404;2023-04-24T09:58:24;1.00;;;0.80;;
65656;SDS011;57397;50.096;14.404;2023-04-24T10:00:55;1.63;;;1.00;;
65656;SDS011;57397;50.096;14.404;2023-04-24T10:03:23;1.20;;;0.85;;
65656;SDS011;57397;50.096;14.404;2023-04-24T10:05:51;0.93;;;0.73;;
65656;SDS011;57397;50.096;14.404;2023-04-24T10:08:17;1.10;;;0.90;;
65656;SDS011;57397;50.096;14.404;2023-04-24T10:10:43;0.95;;;0.70;;
65656;SDS011;57397;50.096;14.404;2023-04-24T10:13:10;1.05;;;0.75;;
65656;SDS011;57397;50.096;14.404;2023-04-24T10:15:36;1.30;;;0.90;;
65656;SDS011;57397;50.096;14.404;2023-04-24T10:18:04;1.27;;;0.88;;
65656;SDS011;57397;50.096;14.404;2023-04-24T10:20:31;2.25;;;0.90;;
65656;SDS011;57397;50.096;14.404;2023-04-24T10:22:57;1.40;;;0.90;;
65656;SDS011;57397;50.096;14.404;2023-04-24T10:25:24;1.13;;;0.80;;
65656;SDS011;57397;50.096;14.404;2023-04-24T10:27:52;1.25;;;0.80;;
65656;SDS011;57397;50.096;14.404;2023-04-24T10:30:22;1.45;;;0.90;;
65656;SDS011;57397;50.096;14.404;2023-04-24T10:32:48;2.30;;;0.80;;
65656;SDS011;57397;50.096;14.404;2023-04-24T10:35:14;1.10;;;0.85;;
65656;SDS011;57397;50.096;14.404;2023-04-24T10:37:50;1.05;;;0.80;;
65656;SDS011;57397;50.096;14.404;2023-04-24T10:40:17;1.17;;;0.88;;
65656;SDS011;57397;50.096;14.404;2023-04-24T10:42:46;1.00;;;0.80;;
65656;SDS011;57397;50.096;14.404;2023-04-24T10:45:17;1.23;;;0.98;;
65656;SDS011;57397;50.096;14.404;2023-04-24T10:47:52;1.15;;;0.73;;
65656;SDS011;57397;50.096;14.404;2023-04-24T10:50:17;0.98;;;0.70;;
65656;SDS011;57397;50.096;14.404;2023-04-24T10:52:43;1.58;;;0.70;;
65656;SDS011;57397;50.096;14.404;2023-04-24T10:55:10;1.23;;;0.90;;
65656;SDS011;57397;50.096;14.404;2023-04-24T10:57:38;1.10;;;0.82;;
65656;SDS011;57397;50.096;14.404;2023-04-24T11:00:19;0.80;;;0.70;;
65656;SDS011;57397;50.096;14.404;2023-04-24T11:02:47;2.50;;;1.00;;
65656;SDS011;57397;50.096;14.404;2023-04-24T11:05:18;0.95;;;0.65;;
65656;SDS011;57397;50.096;14.404;2023-04-24T11:13:10;1.25;;;0.73;;
65656;SDS011;57397;50.096;14.404;2023-04-24T11:15:41;1.30;;;0.90;;
65656;SDS011;57397;50.096;14.404;2023-04-24T11:18:12;1.20;;;0.90;;
65656;SDS011;57397;50.096;14.404;2023-04-24T11:20:41;1.00;;;0.70;;
65656;SDS011;57397;50.096;14.404;2023-04-24T11:23:07;1.45;;;0.70;;
65656;SDS011;57397;50.096;14.404;2023-04-24T11:25:33;1.58;;;0.77;;
65656;SDS011;57397;50.096;14.404;2023-04-24T11:28:03;1.58;;;0.77;;
65656;SDS011;57397;50.096;14.404;2023-04-24T11:30:31;1.02;;;0.80;;
65656;SDS011;57397;50.096;14.404;2023-04-24T11:33:07;1.63;;;0.80;;
65656;SDS011;57397;50.096;14.404;2023-04-24T11:35:38;1.40;;;0.90;;
65656;SDS011;57397;50.096;14.404;2023-04-24T11:38:05;1.45;;;0.70;;
65656;SDS011;57397;50.096;14.404;2023-04-24T11:40:32;1.00;;;0.70;;
65656;SDS011;57397;50.096;14.404;2023-04-24T11:42:59;1.65;;;0.88;;
65656;SDS011;57397;50.096;14.404;2023-04-24T11:45:27;1.48;;;0.82;;
65656;SDS011;57397;50.096;14.404;2023-04-24T11:47:53;1.23;;;0.77;;
65656;SDS011;57397;50.096;14.404;2023-04-24T11:50:20;1.55;;;0.70;;
65656;SDS011;57397;50.096;14.404;2023-04-24T11:52:48;1.05;;;0.70;;
65656;SDS011;57397;50.096;14.404;2023-04-24T11:57:42;0.82;;;0.60;;
65656;SDS011;57397;50.096;14.404;2023-04-24T12:00:14;1.15;;;0.80;;
65656;SDS011;57397;50.096;14.404;2023-04-24T12:05:18;1.00;;;0.70;;
65656;SDS011;57397;50.096;14.404;2023-04-24T12:07:51;0.85;;;0.70;;
65656;SDS011;57397;50.096;14.404;2023-04-24T12:10:24;1.00;;;0.80;;
65656;SDS011;57397;50.096;14.404;2023-04-24T12:12:51;0.95;;;0.80;;
65656;SDS011;57397;50.096;14.404;2023-04-24T12:15:17;1.00;;;0.75;;
65656;SDS011;57397;50.096;14.404;2023-04-24T12:17:44;1.58;;;0.80;;
65656;SDS011;57397;50.096;14.404;2023-04-24T12:20:10;1.35;;;0.80;;
65656;SDS011;57397;50.096;14.404;2023-04-24T12:25:22;2.25;;;0.90;;
65656;SDS011;57397;50.096;14.404;2023-04-24T12:28:07;1.33;;;0.80;;
65656;SDS011;57397;50.096;14.404;2023-04-24T12:30:40;1.20;;;0.73;;
65656;SDS011;57397;50.096;14.404;2023-04-24T12:33:09;0.80;;;0.80;;
65656;SDS011;57397;50.096;14.404;2023-04-24T12:35:35;1.35;;;0.82;;
65656;SDS011;57397;50.096;14.404;2023-04-24T12:38:13;1.02;;;0.70;;
65656;SDS011;57397;50.096;14.404;2023-04-24T12:40:40;0.80;;;0.60;;
65656;SDS011;57397;50.096;14.404;2023-04-24T12:43:19;0.75;;;0.65;;
65656;SDS011;57397;50.096;14.404;2023-04-24T12:45:45;1.50;;;0.80;;
65656;SDS011;57397;50.096;14.404;2023-04-24T12:48:12;1.23;;;0.70;;
65656;SDS011;57397;50.096;14.404;2023-04-24T12:50:39;1.00;;;0.70;;
65656;SDS011;57397;50.096;14.404;2023-04-24T12:53:05;1.60;;;0.90;;
65656;SDS011;57397;50.096;14.404;2023-04-24T12:55:31;1.25;;;0.80;;
65656;SDS011;57397;50.096;14.404;2023-04-24T12:57:57;1.27;;;0.90;;
65656;SDS011;57397;50.096;14.404;2023-04-24T13:00:23;1.10;;;0.80;;
65656;SDS011;57397;50.096;14.404;2023-04-24T13:02:48;0.98;;;0.77;;
65656;SDS011;57397;50.096;14.404;2023-04-24T13:05:14;0.80;;;0.70;;
65656;SDS011;57397;50.096;14.404;2023-04-24T13:07:40;1.05;;;0.85;;
65656;SDS011;57397;50.096;14.404;2023-04-24T13:10:06;1.00;;;0.77;;
65656;SDS011;57397;50.096;14.404;2023-04-24T13:12:32;0.77;;;0.70;;
65656;SDS011;57397;50.096;14.404;2023-04-24T13:14:58;1.10;;;0.80;;
65656;SDS011;57397;50.096;14.404;2023-04-24T13:17:24;0.98;;;0.70;;
65656;SDS011;57397;50.096;14.404;2023-04-24T13:19:50;1.02;;;0.80;;
65656;SDS011;57397;50.096;14.404;2023-04-24T13:22:16;1.00;;;0.80;;
65656;SDS011;57397;50.096;14.404;2023-04-24T13:24:43;0.90;;;0.70;;
65656;SDS011;57397;50.096;14.404;2023-04-24T13:27:09;0.90;;;0.70;;
65656;SDS011;57397;50.096;14.404;2023-04-24T13:29:35;2.20;;;1.42;;
65656;SDS011;57397;50.096;14.404;2023-04-24T13:32:01;0.90;;;0.60;;
65656;SDS011;57397;50.096;14.404;2023-04-24T13:34:26;2.45;;;0.80;;
65656;SDS011;57397;50.096;14.404;2023-04-24T13:36:53;1.27;;;0.75;;
65656;SDS011;57397;50.096;14.404;2023-04-24T13:39:20;0.73;;;0.70;;
65656;SDS011;57397;50.096;14.404;2023-04-24T13:41:49;0.90;;;0.80;;
65656;SDS011;57397;50.096;14.404;2023-04-24T13:44:15;3.00;;;0.90;;
65656;SDS011;57397;50.096;14.404;2023-04-24T13:46:42;1.63;;;0.73;;
65656;SDS011;57397;50.096;14.404;2023-04-24T13:49:09;1.52;;;0.85;;
65656;SDS011;57397;50.096;14.404;2023-04-24T13:51:35;1.13;;;0.73;;
65656;SDS011;57397;50.096;14.404;2023-04-24T13:54:00;1.30;;;0.90;;
65656;SDS011;57397;50.096;14.404;2023-04-24T13:56:26;1.15;;;0.80;;
65656;SDS011;57397;50.096;14.404;2023-04-24T13:58:51;1.20;;;0.88;;
65656;SDS011;57397;50.096;14.404;2023-04-24T14:01:18;1.20;;;0.80;;
65656;SDS011;57397;50.096;14.404;2023-04-24T14:03:44;0.90;;;0.80;;
65656;SDS011;57397;50.096;14.404;2023-04-24T14:06:10;1.17;;;0.90;;
65656;SDS011;57397;50.096;14.404;2023-04-24T14:08:35;1.10;;;0.80;;
65656;SDS011;57397;50.096;14.404;2023-04-24T14:11:01;1.10;;;0.80;;
65656;SDS011;57397;50.096;14.404;2023-04-24T14:13:26;1.38;;;0.80;;
65656;SDS011;57397;50.096;14.404;2023-04-24T14:15:52;1.10;;;0.70;;
65656;SDS011;57397;50.096;14.404;2023-04-24T14:18:19;0.90;;;0.77;;
65656;SDS011;57397;50.096;14.404;2023-04-24T14:20:44;0.93;;;0.63;;
65656;SDS011;57397;50.096;14.404;2023-04-24T14:23:10;1.23;;;0.80;;
65656;SDS011;57397;50.096;14.404;2023-04-24T14:25:35;1.35;;;0.80;;
65656;SDS011;57397;50.096;14.404;2023-04-24T14:28:01;1.48;;;0.80;;
65656;SDS011;57397;50.096;14.404;2023-04-24T14:30:27;1.17;;;0.80;;
65656;SDS011;57397;50.096;14.404;2023-04-24T14:32:52;1.10;;;0.82;;
65656;SDS011;57397;50.096;14.404;2023-04-24T14:35:18;2.05;;;0.85;;
65656;SDS011;57397;50.096;14.404;2023-04-24T14:37:44;1.00;;;0.80;;
65656;SDS011;57397;50.096;14.404;2023-04-24T14:40:09;1.55;;;0.80;;
65656;SDS011;57397;50.096;14.404;2023-04-24T14:42:35;1.40;;;1.08;;
65656;SDS011;57397;50.096;14.404;2023-04-24T14:45:01;2.05;;;0.80;;